createdAt,value
2019-02-22T00:01:59.505Z,9.30
2019-02-22T00:04:28.253Z,9.20
2019-02-22T00:06:57.063Z,9.20
2019-02-22T00:09:25.881Z,9.30
2019-02-22T00:11:54.586Z,9.30
2019-02-22T00:14:23.358Z,9.30
2019-02-22T00:16:52.122Z,9.30
2019-02-22T00:19:20.821Z,9.30
2019-02-22T00:21:49.833Z,9.20
2019-02-22T00:24:18.608Z,9.30
2019-02-22T00:26:47.547Z,9.30
2019-02-22T00:29:16.343Z,9.30
2019-02-22T00:31:45.058Z,9.30
2019-02-22T00:34:13.708Z,9.30
2019-02-22T00:36:42.637Z,9.30
2019-02-22T00:39:11.446Z,9.30
2019-02-22T00:41:40.110Z,9.40
2019-02-22T00:44:08.826Z,9.40
2019-02-22T00:46:37.758Z,9.40
2019-02-22T00:49:06.760Z,9.40
2019-02-22T00:51:35.359Z,9.40
2019-02-22T00:54:04.259Z,9.40
2019-02-22T00:56:32.919Z,9.40
2019-02-22T00:59:01.802Z,9.40
2019-02-22T01:01:30.425Z,9.40
2019-02-22T01:03:59.268Z,9.40
2019-02-22T01:06:27.938Z,9.40
2019-02-22T01:08:56.763Z,9.40
2019-02-22T01:11:25.498Z,9.40
2019-02-22T01:13:54.339Z,9.40
2019-02-22T01:16:23.122Z,9.40
2019-02-22T01:18:51.926Z,9.40
2019-02-22T01:21:20.603Z,9.40
2019-02-22T01:23:49.357Z,9.40
2019-02-22T01:26:18.090Z,9.40
2019-02-22T01:28:46.813Z,9.40
2019-02-22T01:31:15.531Z,9.40
2019-02-22T01:33:44.371Z,9.40
2019-02-22T01:36:13.075Z,9.40
2019-02-22T01:38:41.903Z,9.40
2019-02-22T01:41:10.606Z,9.40
2019-02-22T01:43:39.463Z,9.40
2019-02-22T01:46:08.374Z,9.30
2019-02-22T01:48:37.193Z,9.30
2019-02-22T01:51:06.179Z,9.30
2019-02-22T01:53:34.998Z,9.30
2019-02-22T01:56:03.828Z,9.30
2019-02-22T01:58:32.613Z,9.30
2019-02-22T02:01:01.563Z,9.30
2019-02-22T02:03:30.347Z,9.30
2019-02-22T02:05:59.707Z,9.30
2019-02-22T02:08:29.851Z,9.30
2019-02-22T02:10:58.608Z,9.30
2019-02-22T02:13:27.375Z,9.30
2019-02-22T02:15:56.342Z,9.30
2019-02-22T02:18:24.965Z,9.30
2019-02-22T02:20:53.880Z,9.20
2019-02-22T02:23:22.760Z,9.30
2019-02-22T02:25:51.583Z,9.30
2019-02-22T02:28:20.401Z,9.30
2019-02-22T02:30:49.267Z,9.30
2019-02-22T02:33:17.954Z,9.30
2019-02-22T02:35:46.757Z,9.30
2019-02-22T02:38:15.510Z,9.30
2019-02-22T02:40:44.156Z,9.30
2019-02-22T02:43:12.821Z,9.30
2019-02-22T02:45:41.672Z,9.30
2019-02-22T02:48:10.362Z,9.30
2019-02-22T02:50:39.116Z,9.40
2019-02-22T02:53:07.861Z,9.40
2019-02-22T02:55:36.581Z,9.40
2019-02-22T02:58:05.270Z,9.30
2019-02-22T03:00:34.040Z,9.30
2019-02-22T03:03:02.797Z,9.30
2019-02-22T03:05:48.458Z,9.40
2019-02-22T03:08:17.231Z,9.40
2019-02-22T03:10:46.290Z,9.30
2019-02-22T03:13:15.153Z,9.30
2019-02-22T03:15:43.820Z,9.30
2019-02-22T03:18:12.490Z,9.30
2019-02-22T03:20:41.208Z,9.30
2019-02-22T03:23:10.027Z,9.30
2019-02-22T03:25:38.964Z,9.30
2019-02-22T03:28:07.821Z,9.30
2019-02-22T03:30:36.792Z,9.40
2019-02-22T03:33:05.585Z,9.40
2019-02-22T03:35:34.337Z,9.40
2019-02-22T03:38:05.705Z,9.40
2019-02-22T03:40:33.494Z,9.40
2019-02-22T03:43:02.123Z,9.40
2019-02-22T03:45:31.004Z,9.40
2019-02-22T03:47:59.800Z,9.40
2019-02-22T03:50:28.618Z,9.40
2019-02-22T03:52:58.981Z,9.40
2019-02-22T03:55:27.759Z,9.40
2019-02-22T03:57:56.558Z,9.40
2019-02-22T04:00:25.219Z,9.40
2019-02-22T04:02:54.118Z,9.40
2019-02-22T04:05:22.791Z,9.30
2019-02-22T04:07:51.990Z,9.30
2019-02-22T04:10:20.787Z,9.30
2019-02-22T04:12:49.619Z,9.30
2019-02-22T04:15:18.231Z,9.30
2019-02-22T04:17:46.931Z,9.30
2019-02-22T04:20:15.615Z,9.00
2019-02-22T04:22:44.598Z,9.30
2019-02-22T04:25:13.410Z,9.20
2019-02-22T04:27:42.187Z,9.20
2019-02-22T04:30:11.050Z,9.30
2019-02-22T04:32:39.834Z,9.30
2019-02-22T04:35:08.492Z,9.30
2019-02-22T04:37:37.260Z,9.30
2019-02-22T04:40:06.701Z,9.30
2019-02-22T04:42:35.545Z,9.30
2019-02-22T04:45:05.073Z,9.30
2019-02-22T04:47:33.823Z,9.30
2019-02-22T04:50:02.915Z,9.30
2019-02-22T04:52:31.670Z,9.20
2019-02-22T04:55:00.467Z,9.30
2019-02-22T04:57:29.254Z,9.30
2019-02-22T04:59:57.993Z,9.30
2019-02-22T05:02:29.339Z,9.30
2019-02-22T05:04:57.998Z,9.30
2019-02-22T05:07:26.765Z,9.30
2019-02-22T05:09:55.415Z,9.30
2019-02-22T05:12:24.176Z,9.30
2019-02-22T05:14:52.947Z,9.30
2019-02-22T05:17:21.828Z,9.20
2019-02-22T05:19:50.478Z,9.30
2019-02-22T05:22:19.306Z,9.30
2019-02-22T05:24:47.954Z,9.30
2019-02-22T05:27:16.939Z,9.30
2019-02-22T05:29:45.548Z,9.30
2019-02-22T05:32:14.308Z,9.30
2019-02-22T05:34:43.071Z,9.30
2019-02-22T05:37:11.773Z,9.30
2019-02-22T05:39:40.477Z,9.30
2019-02-22T05:42:09.352Z,9.30
2019-02-22T05:44:37.955Z,9.30
2019-02-22T05:47:06.635Z,9.30
2019-02-22T05:49:35.251Z,9.20
2019-02-22T05:52:04.014Z,9.20
2019-02-22T05:54:32.919Z,9.30
2019-02-22T05:57:01.724Z,9.30
2019-02-22T05:59:30.506Z,9.20
2019-02-22T06:01:59.231Z,9.30
2019-02-22T06:04:28.197Z,9.30
2019-02-22T06:06:56.989Z,9.20
2019-02-22T06:09:25.722Z,9.20
2019-02-22T06:11:54.708Z,9.30
2019-02-22T06:14:23.457Z,9.30
2019-02-22T06:16:52.210Z,9.30
2019-02-22T06:19:21.011Z,9.30
2019-02-22T06:21:49.756Z,9.30
2019-02-22T06:24:18.474Z,9.30
2019-02-22T06:26:47.174Z,9.30
2019-02-22T06:29:15.887Z,9.40
2019-02-22T06:31:44.591Z,9.10
2019-02-22T06:34:13.358Z,9.40
2019-02-22T06:36:42.134Z,9.40
2019-02-22T06:39:10.967Z,9.40
2019-02-22T06:41:39.663Z,9.40
2019-02-22T06:44:08.294Z,9.50
2019-02-22T06:46:37.135Z,9.50
2019-02-22T06:49:05.878Z,9.50
2019-02-22T06:51:34.691Z,9.50
2019-02-22T06:54:03.397Z,9.50
2019-02-22T06:56:32.112Z,9.60
2019-02-22T06:59:00.739Z,9.60
2019-02-22T07:01:29.592Z,9.60
2019-02-22T07:03:58.219Z,9.60
2019-02-22T07:06:26.922Z,9.60
2019-02-22T07:08:55.634Z,9.60
2019-02-22T07:11:25.990Z,9.60
2019-02-22T07:13:54.703Z,9.60
2019-02-22T07:16:23.394Z,9.60
2019-02-22T07:18:52.312Z,9.60
2019-02-22T07:21:21.156Z,9.70
2019-02-22T07:23:49.931Z,9.70
2019-02-22T07:26:18.819Z,9.80
2019-02-22T07:28:47.584Z,9.70
2019-02-22T07:31:16.479Z,9.70
2019-02-22T07:33:45.536Z,9.70
2019-02-22T07:36:14.295Z,9.70
2019-02-22T07:38:43.579Z,9.80
2019-02-22T07:41:12.596Z,9.90
2019-02-22T07:43:41.426Z,9.90
2019-02-22T07:46:10.421Z,9.90
2019-02-22T07:48:39.303Z,9.90
2019-02-22T07:51:08.073Z,10.00
2019-02-22T07:53:36.961Z,10.00
2019-02-22T07:56:06.107Z,10.00
2019-02-22T07:58:35.037Z,10.00
2019-02-22T08:01:04.011Z,10.00
2019-02-22T08:03:33.202Z,10.00
2019-02-22T08:06:02.052Z,10.10
2019-02-22T08:08:30.872Z,10.10
2019-02-22T08:10:59.895Z,10.20
2019-02-22T08:13:28.815Z,10.20
2019-02-22T08:15:57.539Z,10.40
2019-02-22T08:18:26.406Z,10.50
2019-02-22T08:20:55.320Z,10.50
2019-02-22T08:23:24.007Z,10.60
2019-02-22T08:25:52.868Z,10.70
2019-02-22T08:28:40.900Z,10.80
2019-02-22T08:31:09.578Z,11.00
2019-02-22T08:33:38.314Z,11.20
2019-02-22T08:36:07.098Z,11.50
2019-02-22T08:38:35.826Z,11.90
2019-02-22T08:41:04.553Z,11.90
2019-02-22T08:43:33.599Z,11.90
2019-02-22T08:46:02.422Z,11.90
2019-02-22T08:48:31.237Z,11.90
2019-02-22T08:51:00.061Z,12.00
2019-02-22T08:53:28.919Z,12.30
2019-02-22T08:55:57.696Z,12.30
2019-02-22T08:58:26.601Z,12.30
2019-02-22T09:00:55.255Z,12.30
2019-02-22T09:03:24.305Z,12.30
2019-02-22T09:05:53.190Z,12.30
2019-02-22T09:08:21.996Z,12.30
2019-02-22T09:11:00.118Z,12.30
2019-02-22T09:13:21.468Z,12.30
2019-02-22T09:15:50.216Z,12.40
2019-02-22T09:18:19.099Z,12.40
2019-02-22T09:20:48.804Z,12.50
2019-02-22T09:23:18.526Z,12.50
2019-02-22T09:25:48.538Z,12.60
2019-02-22T09:28:18.507Z,12.60
2019-02-22T09:30:48.655Z,12.80
2019-02-22T09:33:18.318Z,13.00
2019-02-22T09:35:48.003Z,13.20
2019-02-22T09:38:17.781Z,13.50
2019-02-22T09:40:47.666Z,13.70
2019-02-22T09:43:17.807Z,13.80
2019-02-22T09:45:47.286Z,14.00
2019-02-22T09:48:16.919Z,14.20
2019-02-22T09:50:46.751Z,14.20
2019-02-22T09:53:16.684Z,14.30
2019-02-22T09:55:46.358Z,14.40
2019-02-22T09:58:16.078Z,14.50
2019-02-22T10:00:46.491Z,14.80
2019-02-22T10:03:16.252Z,15.10
2019-02-22T10:05:47.586Z,15.20
2019-02-22T10:08:16.390Z,15.30
2019-02-22T10:10:45.169Z,15.50
2019-02-22T10:13:14.187Z,15.60
2019-02-22T10:15:42.903Z,15.70
2019-02-22T10:18:11.782Z,15.80
2019-02-22T10:20:40.599Z,15.40
2019-02-22T10:23:09.551Z,14.90
2019-02-22T10:25:38.469Z,14.60
2019-02-22T10:28:17.182Z,14.40
2019-02-22T10:30:38.190Z,14.20
2019-02-22T10:33:07.172Z,13.80
2019-02-22T10:35:37.506Z,13.40
2019-02-22T10:38:06.285Z,13.30
2019-02-22T10:40:35.286Z,13.30
2019-02-22T10:43:04.194Z,13.10
2019-02-22T10:45:33.027Z,13.10
2019-02-22T10:48:01.898Z,13.30
2019-02-22T10:50:30.705Z,13.40
2019-02-22T10:53:02.403Z,13.40
2019-02-22T10:55:29.813Z,13.20
2019-02-22T10:57:58.679Z,13.10
2019-02-22T11:00:46.737Z,12.90
2019-02-22T11:03:16.120Z,12.90
2019-02-22T11:05:44.857Z,12.70
2019-02-22T11:08:13.702Z,12.50
2019-02-22T11:10:44.586Z,12.40
2019-02-22T11:13:13.526Z,12.50
2019-02-22T11:15:43.158Z,12.50
2019-02-22T11:18:11.936Z,12.80
2019-02-22T11:20:40.768Z,13.20
2019-02-22T11:23:09.907Z,13.50
2019-02-22T11:25:38.821Z,13.70
2019-02-22T11:28:07.525Z,14.30
2019-02-22T11:30:36.517Z,15.00
2019-02-22T11:33:05.221Z,15.70
2019-02-22T11:35:35.703Z,16.40
2019-02-22T11:38:04.352Z,16.20
2019-02-22T11:40:33.752Z,16.20
2019-02-22T11:43:03.405Z,15.90
2019-02-22T11:45:32.219Z,16.00
2019-02-22T11:48:08.804Z,15.70
2019-02-22T11:50:31.710Z,15.00
2019-02-22T11:53:00.574Z,14.90
2019-02-22T11:55:29.479Z,14.60
2019-02-22T11:57:58.190Z,14.50
2019-02-22T12:00:28.072Z,14.50
2019-02-22T12:02:57.082Z,14.20
2019-02-22T12:05:25.798Z,14.20
2019-02-22T12:07:57.478Z,14.50
2019-02-22T12:10:26.478Z,14.60
2019-02-22T12:12:55.255Z,14.60
2019-02-22T12:15:24.045Z,14.30
2019-02-22T12:17:52.854Z,14.00
2019-02-22T12:20:21.753Z,13.90
2019-02-22T12:22:50.453Z,13.80
2019-02-22T12:25:19.206Z,14.10
2019-02-22T12:27:48.034Z,14.80
2019-02-22T12:30:17.230Z,15.30
2019-02-22T12:32:46.133Z,15.50
2019-02-22T12:35:14.974Z,15.20
2019-02-22T12:37:43.795Z,14.90
2019-02-22T12:40:12.539Z,14.60
2019-02-22T12:42:41.492Z,14.40
2019-02-22T12:45:11.107Z,14.20
2019-02-22T12:47:59.159Z,14.10
2019-02-22T12:50:27.806Z,14.00
2019-02-22T12:52:56.726Z,14.00
2019-02-22T12:55:25.612Z,13.90
2019-02-22T12:57:54.272Z,14.00
2019-02-22T13:00:23.036Z,13.90
2019-02-22T13:03:01.480Z,13.90
2019-02-22T13:05:24.247Z,13.90
2019-02-22T13:07:53.249Z,13.80
2019-02-22T13:10:22.292Z,13.50
2019-02-22T13:12:51.184Z,13.60
2019-02-22T13:15:20.105Z,13.80
2019-02-22T13:17:48.847Z,13.90
2019-02-22T13:20:17.668Z,13.90
2019-02-22T13:22:46.681Z,14.00
2019-02-22T13:25:15.567Z,14.00
2019-02-22T13:27:44.391Z,13.80
2019-02-22T13:30:16.379Z,13.70
2019-02-22T13:32:45.137Z,13.60
2019-02-22T13:35:14.056Z,13.50
2019-02-22T13:37:43.074Z,13.30
2019-02-22T13:40:13.384Z,13.40
2019-02-22T13:42:42.328Z,13.30
2019-02-22T13:45:11.436Z,13.30
2019-02-22T13:47:40.448Z,13.30
2019-02-22T13:50:18.726Z,13.40
2019-02-22T13:52:48.895Z,13.40
2019-02-22T13:55:17.632Z,13.50
2019-02-22T13:57:47.126Z,13.60
2019-02-22T14:00:17.651Z,13.70
2019-02-22T14:02:46.354Z,13.70
2019-02-22T14:05:15.147Z,13.80
2019-02-22T14:07:53.939Z,13.70
2019-02-22T14:10:22.931Z,13.50
2019-02-22T14:12:51.802Z,13.40
2019-02-22T14:15:21.059Z,13.40
2019-02-22T14:17:50.077Z,13.30
2019-02-22T14:20:19.067Z,13.20
2019-02-22T14:22:48.987Z,13.30
2019-02-22T14:25:17.937Z,13.30
2019-02-22T14:27:46.798Z,13.20
2019-02-22T14:30:16.008Z,13.20
2019-02-22T14:32:44.979Z,13.10
2019-02-22T14:35:13.884Z,13.10
2019-02-22T14:37:42.952Z,13.00
2019-02-22T14:40:12.623Z,12.90
2019-02-22T14:42:41.749Z,12.80
2019-02-22T14:45:11.268Z,12.80
2019-02-22T14:47:40.325Z,12.80
2019-02-22T14:50:16.177Z,12.90
2019-02-22T14:52:45.063Z,13.00
2019-02-22T14:55:14.112Z,12.90
2019-02-22T14:57:45.203Z,12.80
2019-02-22T15:00:17.671Z,12.60
2019-02-22T15:02:46.551Z,12.50
2019-02-22T15:05:15.611Z,12.30
2019-02-22T15:07:45.165Z,12.20
2019-02-22T15:10:14.142Z,12.10
2019-02-22T15:12:42.995Z,12.00
2019-02-22T15:15:13.238Z,11.90
2019-02-22T15:17:46.711Z,11.80
2019-02-22T15:20:15.459Z,11.80
2019-02-22T15:22:44.268Z,11.80
2019-02-22T15:25:14.411Z,11.70
2019-02-22T15:27:43.071Z,11.60
2019-02-22T15:30:12.748Z,11.60
2019-02-22T15:32:41.703Z,11.50
2019-02-22T15:35:12.083Z,11.50
2019-02-22T15:37:43.180Z,11.50
2019-02-22T15:40:11.794Z,11.40
2019-02-22T15:42:40.792Z,11.40
2019-02-22T15:45:11.156Z,11.40
2019-02-22T15:47:40.164Z,11.30
2019-02-22T15:50:13.221Z,11.30
2019-02-22T15:52:42.066Z,11.30
2019-02-22T15:55:14.466Z,11.20
2019-02-22T15:57:43.269Z,11.30
2019-02-22T16:00:13.843Z,11.30
2019-02-22T16:02:42.698Z,11.30
2019-02-22T16:05:13.168Z,11.20
2019-02-22T16:07:44.908Z,11.20
2019-02-22T16:10:13.118Z,11.20
2019-02-22T16:12:41.880Z,11.20
2019-02-22T16:15:11.245Z,11.20
2019-02-22T16:17:40.069Z,11.20
2019-02-22T16:20:08.922Z,11.10
2019-02-22T16:22:37.851Z,11.10
2019-02-22T16:25:18.556Z,11.10
2019-02-22T16:27:37.509Z,11.00
2019-02-22T16:30:09.063Z,11.00
2019-02-22T16:32:37.961Z,10.90
2019-02-22T16:35:07.335Z,10.80
2019-02-22T16:37:36.256Z,10.80
2019-02-22T16:40:06.838Z,10.80
2019-02-22T16:42:36.012Z,10.70
2019-02-22T16:45:06.550Z,10.70
2019-02-22T16:47:39.945Z,10.60
2019-02-22T16:50:07.992Z,10.60
2019-02-22T16:52:36.759Z,10.60
2019-02-22T16:55:07.335Z,10.50
2019-02-22T16:57:36.278Z,10.50
2019-02-22T17:00:24.295Z,10.50
2019-02-22T17:02:53.192Z,10.50
2019-02-22T17:05:22.165Z,10.40
2019-02-22T17:07:51.038Z,10.40
2019-02-22T17:10:19.856Z,10.40
2019-02-22T17:12:48.698Z,10.40
2019-02-22T17:15:17.508Z,10.40
2019-02-22T17:17:46.536Z,10.40
2019-02-22T17:20:15.724Z,10.30
2019-02-22T17:22:44.774Z,10.30
2019-02-22T17:25:17.908Z,10.30
2019-02-22T17:27:46.948Z,10.30
2019-02-22T17:30:16.606Z,10.30
2019-02-22T17:32:45.470Z,10.30
2019-02-22T17:35:14.188Z,10.20
2019-02-22T17:37:42.939Z,10.20
2019-02-22T17:40:13.282Z,10.20
2019-02-22T17:42:42.155Z,10.20
2019-02-22T17:45:10.947Z,10.20
2019-02-22T17:47:39.800Z,10.20
2019-02-22T17:50:09.223Z,10.10
2019-02-22T17:52:41.025Z,10.10
2019-02-22T17:55:12.660Z,10.10
2019-02-22T17:57:41.528Z,9.80
2019-02-22T18:00:13.474Z,10.10
2019-02-22T18:02:42.353Z,10.10
2019-02-22T18:05:11.237Z,10.10
2019-02-22T18:07:40.163Z,10.10
2019-02-22T18:10:09.667Z,10.10
2019-02-22T18:12:38.545Z,10.00
2019-02-22T18:15:08.519Z,10.00
2019-02-22T18:17:37.442Z,10.00
2019-02-22T18:20:09.685Z,10.00
2019-02-22T18:22:38.826Z,10.00
2019-02-22T18:25:08.412Z,9.90
2019-02-22T18:27:37.272Z,9.90
2019-02-22T18:30:07.918Z,9.90
2019-02-22T18:32:39.674Z,9.90
2019-02-22T18:35:08.614Z,9.80
2019-02-22T18:37:37.663Z,9.80
2019-02-22T18:40:08.174Z,9.70
2019-02-22T18:42:37.379Z,9.70
2019-02-22T18:45:07.115Z,9.60
2019-02-22T18:47:35.801Z,9.60
2019-02-22T18:50:06.044Z,9.50
2019-02-22T18:52:34.838Z,9.50
2019-02-22T18:55:04.007Z,9.30
2019-02-22T18:57:32.718Z,9.30
2019-02-22T19:00:01.644Z,9.20
2019-02-22T19:02:30.494Z,9.00
2019-02-22T19:04:59.384Z,8.90
2019-02-22T19:07:28.105Z,8.80
2019-02-22T19:09:57.016Z,8.70
2019-02-22T19:12:26.150Z,8.60
2019-02-22T19:14:54.848Z,8.50
2019-02-22T19:17:30.453Z,8.40
2019-02-22T19:19:54.054Z,8.40
2019-02-22T19:22:23.003Z,8.30
2019-02-22T19:24:54.863Z,8.30
2019-02-22T19:27:23.720Z,8.30
2019-02-22T19:29:52.808Z,8.30
2019-02-22T19:32:21.694Z,8.30
2019-02-22T19:34:50.498Z,8.20
2019-02-22T19:37:19.408Z,8.20
2019-02-22T19:39:48.185Z,8.20
2019-02-22T19:42:17.032Z,8.10
2019-02-22T19:44:45.774Z,8.00
2019-02-22T19:47:14.611Z,8.00
2019-02-22T19:49:43.988Z,8.00
2019-02-22T19:52:13.360Z,7.90
2019-02-22T19:54:44.855Z,7.90
2019-02-22T19:57:14.124Z,7.80
2019-02-22T19:59:43.140Z,7.80
2019-02-22T20:02:12.387Z,7.70
2019-02-22T20:04:41.196Z,7.70
2019-02-22T20:07:11.911Z,7.60
2019-02-22T20:09:41.161Z,7.50
2019-02-22T20:12:10.013Z,7.50
2019-02-22T20:14:42.135Z,7.50
2019-02-22T20:17:11.132Z,7.40
2019-02-22T20:19:42.329Z,7.40
2019-02-22T20:22:11.291Z,7.40
2019-02-22T20:24:40.099Z,7.30
2019-02-22T20:27:09.213Z,7.30
2019-02-22T20:29:38.542Z,7.30
2019-02-22T20:32:07.324Z,7.20
2019-02-22T20:34:36.684Z,7.20
2019-02-22T20:37:05.577Z,7.20
2019-02-22T20:39:34.673Z,7.10
2019-02-22T20:42:03.332Z,7.10
2019-02-22T20:44:32.250Z,7.10
2019-02-22T20:47:01.166Z,7.10
2019-02-22T20:49:29.849Z,7.00
2019-02-22T20:51:58.686Z,6.90
2019-02-22T20:54:27.505Z,6.90
2019-02-22T20:56:56.879Z,6.80
2019-02-22T20:59:25.675Z,6.80
2019-02-22T21:01:55.005Z,6.70
2019-02-22T21:04:23.761Z,6.60
2019-02-22T21:06:53.727Z,6.60
2019-02-22T21:09:22.582Z,6.60
2019-02-22T21:11:51.384Z,6.60
2019-02-22T21:14:20.236Z,6.50
2019-02-22T21:16:49.070Z,6.50
2019-02-22T21:19:17.925Z,6.50
2019-02-22T21:21:46.897Z,6.50
2019-02-22T21:24:15.732Z,6.40
2019-02-22T21:26:44.790Z,6.40
2019-02-22T21:29:13.703Z,6.40
2019-02-22T21:32:01.748Z,6.40
2019-02-22T21:34:30.429Z,6.30
2019-02-22T21:36:59.305Z,6.30
2019-02-22T21:39:28.094Z,6.30
2019-02-22T21:41:56.957Z,6.20
2019-02-22T21:44:25.861Z,6.20
2019-02-22T21:46:54.660Z,6.20
2019-02-22T21:49:23.441Z,6.20
2019-02-22T21:51:52.312Z,6.20
2019-02-22T21:54:21.077Z,6.10
2019-02-22T21:56:49.730Z,6.10
2019-02-22T21:59:18.520Z,6.10
2019-02-22T22:01:47.302Z,6.10
2019-02-22T22:04:15.994Z,6.00
2019-02-22T22:06:44.754Z,6.00
2019-02-22T22:09:13.821Z,6.00
2019-02-22T22:11:42.801Z,6.00
2019-02-22T22:14:11.807Z,6.00
2019-02-22T22:16:40.653Z,6.00
2019-02-22T22:19:09.587Z,5.90
2019-02-22T22:21:38.278Z,5.90
2019-02-22T22:24:07.087Z,5.90
2019-02-22T22:26:35.958Z,5.80
2019-02-22T22:29:04.762Z,5.80
2019-02-22T22:31:33.519Z,5.80
2019-02-22T22:34:02.293Z,5.80
2019-02-22T22:36:31.067Z,5.80
2019-02-22T22:38:59.836Z,5.70
2019-02-22T22:41:28.598Z,5.70
2019-02-22T22:43:57.343Z,5.60
2019-02-22T22:46:36.445Z,5.60
2019-02-22T22:48:56.553Z,5.60
2019-02-22T22:51:26.178Z,5.50
2019-02-22T22:53:55.127Z,5.40
2019-02-22T22:56:23.912Z,5.40
2019-02-22T22:58:52.822Z,5.40
2019-02-22T23:01:21.634Z,5.40
2019-02-22T23:03:50.441Z,5.40
2019-02-22T23:06:21.699Z,5.40
2019-02-22T23:08:50.418Z,5.40
2019-02-22T23:11:19.152Z,5.40
2019-02-22T23:13:47.996Z,5.30
2019-02-22T23:16:16.701Z,5.30
2019-02-22T23:18:45.550Z,5.30
2019-02-22T23:21:14.226Z,5.30
2019-02-22T23:23:43.005Z,5.30
2019-02-22T23:26:11.786Z,5.30
2019-02-22T23:28:40.578Z,5.20
2019-02-22T23:31:09.442Z,5.20
2019-02-22T23:33:38.151Z,5.10
2019-02-22T23:36:06.907Z,5.10
2019-02-22T23:38:35.614Z,5.10
2019-02-22T23:41:04.417Z,5.10
2019-02-22T23:43:33.219Z,5.00
2019-02-22T23:46:02.092Z,5.00
2019-02-22T23:48:30.789Z,4.90
2019-02-22T23:50:59.683Z,4.90
2019-02-22T23:53:28.405Z,4.90
2019-02-22T23:55:57.179Z,4.80
2019-02-22T23:58:25.812Z,4.80
